createdAt,value
2018-04-26T00:01:57.875Z,51.20
2018-04-26T00:05:01.715Z,51.80
2018-04-26T00:08:05.616Z,51.90
2018-04-26T00:11:10.165Z,51.33
2018-04-26T00:14:13.953Z,51.97
2018-04-26T00:17:17.771Z,51.93
2018-04-26T00:20:21.586Z,49.67
2018-04-26T00:23:25.377Z,55.97
2018-04-26T00:26:29.184Z,50.40
2018-04-26T00:29:32.973Z,50.53
2018-04-26T00:32:36.795Z,52.33
2018-04-26T00:35:40.615Z,48.07
2018-04-26T00:38:44.416Z,49.37
2018-04-26T00:41:48.230Z,50.70
2018-04-26T00:44:52.019Z,50.00
2018-04-26T00:47:56.593Z,58.83
2018-04-26T00:51:00.411Z,56.20
2018-04-26T00:54:04.210Z,54.53
2018-04-26T00:57:08.097Z,56.43
2018-04-26T01:00:11.903Z,60.17
2018-04-26T01:03:15.714Z,62.27
2018-04-26T01:06:19.534Z,55.93
2018-04-26T01:09:23.317Z,54.00
2018-04-26T01:12:27.148Z,53.30
2018-04-26T01:15:31.674Z,55.63
2018-04-26T01:18:35.501Z,52.97
2018-04-26T01:21:40.066Z,59.93
2018-04-26T01:24:44.593Z,51.03
2018-04-26T01:27:49.152Z,51.20
2018-04-26T01:30:52.963Z,51.60
2018-04-26T01:33:57.494Z,51.83
2018-04-26T01:37:19.157Z,51.30
2018-04-26T01:40:23.688Z,55.90
2018-04-26T01:43:28.348Z,58.80
2018-04-26T01:46:32.183Z,48.83
2018-04-26T01:49:36.015Z,52.50
2018-04-26T01:52:39.841Z,50.90
2018-04-26T01:55:43.630Z,49.17
2018-04-26T01:58:48.182Z,47.60
2018-04-26T02:01:52.000Z,50.37
2018-04-26T02:04:56.535Z,49.60
2018-04-26T02:08:01.090Z,50.93
2018-04-26T02:11:04.903Z,49.80
2018-04-26T02:14:09.465Z,49.27
2018-04-26T02:17:13.292Z,48.63
2018-04-26T02:20:17.079Z,50.60
2018-04-26T02:23:20.894Z,51.57
2018-04-26T02:26:24.710Z,48.10
2018-04-26T02:29:28.513Z,47.10
2018-04-26T02:32:32.330Z,52.87
2018-04-26T02:35:36.140Z,47.80
2018-04-26T02:38:39.952Z,47.67
2018-04-26T02:41:43.766Z,53.70
2018-04-26T02:44:48.299Z,53.20
2018-04-26T02:47:52.854Z,50.43
2018-04-26T02:50:56.642Z,47.10
2018-04-26T02:54:00.460Z,45.50
2018-04-26T02:57:04.337Z,50.83
2018-04-26T03:00:08.145Z,45.97
2018-04-26T03:03:11.963Z,46.67
2018-04-26T03:06:16.496Z,48.43
2018-04-26T03:09:21.056Z,49.33
2018-04-26T03:12:25.606Z,45.60
2018-04-26T03:15:29.427Z,45.73
2018-04-26T03:18:33.970Z,49.70
2018-04-26T03:21:37.853Z,45.60
2018-04-26T03:24:41.685Z,46.90
2018-04-26T03:27:45.502Z,44.70
2018-04-26T03:30:49.296Z,46.93
2018-04-26T03:33:53.111Z,44.80
2018-04-26T03:36:56.935Z,45.03
2018-04-26T03:40:00.721Z,48.97
2018-04-26T03:43:05.383Z,45.07
2018-04-26T03:46:09.920Z,43.33
2018-04-26T03:49:14.474Z,43.77
2018-04-26T03:52:18.290Z,45.77
2018-04-26T03:55:22.080Z,43.37
2018-04-26T03:58:25.891Z,41.43
2018-04-26T04:01:47.573Z,40.83
2018-04-26T04:05:09.836Z,41.57
2018-04-26T04:08:14.389Z,41.90
2018-04-26T04:11:18.177Z,42.90
2018-04-26T04:14:22.010Z,40.20
2018-04-26T04:17:25.802Z,39.97
2018-04-26T04:20:29.606Z,40.10
2018-04-26T04:23:33.409Z,42.87
2018-04-26T04:26:37.211Z,42.57
2018-04-26T04:29:41.766Z,42.07
2018-04-26T04:32:46.314Z,41.20
2018-04-26T04:35:50.097Z,39.27
2018-04-26T04:38:53.926Z,41.60
2018-04-26T04:41:57.714Z,39.63
2018-04-26T04:45:01.533Z,38.40
2018-04-26T04:48:05.355Z,38.37
2018-04-26T04:51:09.165Z,36.43
2018-04-26T04:54:13.040Z,36.33
2018-04-26T04:57:16.827Z,39.13
2018-04-26T05:00:20.637Z,36.97
2018-04-26T05:03:24.449Z,38.57
2018-04-26T05:06:28.981Z,42.87
2018-04-26T05:09:33.562Z,36.17
2018-04-26T05:12:37.356Z,36.43
2018-04-26T05:15:41.904Z,35.50
2018-04-26T05:18:46.457Z,36.90
2018-04-26T05:21:50.242Z,36.20
2018-04-26T05:24:54.075Z,37.27
2018-04-26T05:27:58.611Z,37.90
2018-04-26T05:31:02.434Z,35.50
2018-04-26T05:34:06.243Z,34.13
2018-04-26T05:37:10.050Z,35.00
2018-04-26T05:40:13.867Z,32.70
2018-04-26T05:43:17.679Z,33.43
2018-04-26T05:46:21.463Z,34.70
2018-04-26T05:49:26.031Z,34.03
2018-04-26T05:52:29.858Z,34.17
2018-04-26T05:55:33.689Z,32.93
2018-04-26T05:58:37.540Z,32.50
2018-04-26T06:01:41.322Z,31.10
2018-04-26T06:04:45.141Z,34.17
2018-04-26T06:07:49.679Z,31.77
2018-04-26T06:10:54.247Z,32.23
2018-04-26T06:13:58.062Z,32.40
2018-04-26T06:17:01.857Z,32.27
2018-04-26T06:20:06.424Z,30.93
2018-04-26T06:23:10.214Z,35.97
2018-04-26T06:26:14.026Z,44.50
2018-04-26T06:29:17.843Z,37.77
2018-04-26T06:32:21.717Z,31.10
2018-04-26T06:35:25.526Z,35.13
2018-04-26T06:38:30.050Z,45.90
2018-04-26T06:41:33.865Z,40.70
2018-04-26T06:44:37.684Z,33.57
2018-04-26T06:47:41.481Z,30.77
2018-04-26T06:50:45.285Z,27.00
2018-04-26T06:53:49.071Z,25.70
2018-04-26T06:56:53.021Z,25.07
2018-04-26T06:59:56.831Z,23.20
2018-04-26T07:03:01.386Z,17.90
2018-04-26T07:06:05.964Z,19.20
2018-04-26T07:09:09.755Z,15.87
2018-04-26T07:12:14.302Z,15.80
2018-04-26T07:15:18.111Z,14.70
2018-04-26T07:18:22.660Z,12.97
2018-04-26T07:21:26.473Z,11.00
2018-04-26T07:24:30.998Z,10.67
2018-04-26T07:27:34.828Z,10.00
2018-04-26T07:30:38.645Z,7.83
2018-04-26T07:33:42.455Z,8.97
2018-04-26T07:36:46.262Z,6.87
2018-04-26T07:39:50.043Z,7.63
2018-04-26T07:42:53.851Z,7.43
2018-04-26T07:45:58.385Z,8.23
2018-04-26T07:49:02.242Z,13.83
2018-04-26T07:52:06.078Z,18.20
2018-04-26T07:55:09.927Z,14.27
2018-04-26T07:58:13.906Z,16.43
2018-04-26T08:01:18.433Z,34.90
2018-04-26T08:04:22.246Z,23.53
2018-04-26T08:07:26.078Z,21.00
2018-04-26T08:10:29.878Z,26.30
2018-04-26T08:13:33.713Z,26.73
2018-04-26T08:16:37.533Z,39.07
2018-04-26T08:19:41.396Z,33.70
2018-04-26T08:22:45.277Z,29.83
2018-04-26T08:25:49.065Z,25.67
2018-04-26T08:28:52.876Z,17.17
2018-04-26T08:31:57.405Z,19.13
2018-04-26T08:35:02.011Z,12.43
2018-04-26T08:38:05.832Z,15.10
2018-04-26T08:41:09.627Z,19.83
2018-04-26T08:44:13.439Z,25.13
2018-04-26T08:47:17.228Z,22.97
2018-04-26T08:50:21.045Z,26.57
2018-04-26T08:53:24.854Z,30.20
2018-04-26T08:56:28.638Z,64.80
2018-04-26T08:59:32.446Z,95.90
2018-04-26T09:02:36.242Z,133.37
2018-04-26T09:05:40.062Z,212.40
2018-04-26T09:08:43.879Z,153.43
2018-04-26T09:11:47.678Z,143.93
2018-04-26T09:14:51.502Z,151.70
2018-04-26T09:17:55.319Z,164.83
2018-04-26T09:20:59.134Z,170.43
2018-04-26T09:24:02.958Z,148.13
2018-04-26T09:27:06.760Z,141.63
2018-04-26T09:30:11.411Z,141.73
2018-04-26T09:33:15.147Z,127.60
2018-04-26T09:36:18.963Z,119.83
2018-04-26T09:39:22.759Z,115.97
2018-04-26T09:42:26.578Z,111.20
2018-04-26T09:45:30.399Z,102.90
2018-04-26T09:48:34.246Z,103.00
2018-04-26T09:51:38.061Z,86.87
2018-04-26T09:54:42.595Z,92.10
2018-04-26T09:57:46.403Z,88.53
2018-04-26T10:00:54.166Z,80.87
2018-04-26T10:07:28.794Z,64.90
2018-04-26T10:10:32.624Z,57.07
2018-04-26T10:13:36.484Z,60.37
2018-04-26T10:16:41.033Z,57.53
2018-04-26T10:19:45.567Z,100.67
2018-04-26T10:22:50.114Z,74.73
2018-04-26T10:25:54.670Z,54.07
2018-04-26T10:28:58.460Z,47.03
2018-04-26T10:32:02.276Z,27.43
2018-04-26T10:35:10.085Z,33.77
2018-04-26T10:38:13.940Z,28.00
2018-04-26T10:41:17.746Z,18.83
2018-04-26T10:44:21.592Z,18.03
2018-04-26T10:47:25.385Z,12.60
2018-04-26T10:50:29.216Z,9.63
2018-04-26T10:53:33.032Z,7.27
2018-04-26T10:56:37.043Z,7.87
2018-04-26T10:59:40.829Z,6.67
2018-04-26T11:02:45.377Z,7.80
2018-04-26T11:05:49.161Z,6.37
2018-04-26T11:08:52.964Z,8.10
2018-04-26T11:11:56.783Z,7.27
2018-04-26T11:15:00.566Z,7.40
2018-04-26T11:18:05.130Z,8.03
2018-04-26T11:21:08.943Z,7.10
2018-04-26T11:24:12.724Z,5.87
2018-04-26T11:27:16.591Z,7.03
2018-04-26T11:30:20.612Z,7.57
2018-04-26T11:33:24.433Z,4.60
2018-04-26T11:36:28.978Z,5.33
2018-04-26T11:39:32.766Z,6.27
2018-04-26T11:42:36.590Z,40.47
2018-04-26T11:45:40.381Z,26.80
2018-04-26T11:48:44.193Z,20.03
2018-04-26T11:51:48.001Z,18.10
2018-04-26T11:54:51.784Z,12.47
2018-04-26T11:57:55.610Z,10.30
2018-04-26T12:00:59.391Z,7.13
2018-04-26T12:04:03.193Z,8.57
2018-04-26T12:07:07.750Z,8.87
2018-04-26T12:10:11.538Z,6.43
2018-04-26T12:13:15.380Z,4.03
2018-04-26T12:16:19.895Z,3.80
2018-04-26T12:19:25.198Z,5.70
2018-04-26T12:22:29.006Z,6.07
2018-04-26T12:25:32.790Z,4.97
2018-04-26T12:28:36.617Z,4.70
2018-04-26T12:31:40.451Z,5.77
2018-04-26T12:34:44.285Z,4.67
2018-04-26T12:37:48.830Z,3.67
2018-04-26T12:40:53.354Z,4.80
2018-04-26T12:43:57.165Z,5.83
2018-04-26T12:47:00.975Z,3.60
2018-04-26T12:50:04.768Z,5.87
2018-04-26T12:53:08.577Z,7.23
2018-04-26T12:56:13.113Z,5.10
2018-04-26T12:59:17.656Z,7.47
2018-04-26T13:02:22.214Z,25.93
2018-04-26T13:05:25.998Z,117.67
2018-04-26T13:08:29.810Z,51.90
2018-04-26T13:11:33.593Z,57.30
2018-04-26T13:14:37.405Z,62.93
2018-04-26T13:17:41.245Z,62.23
2018-04-26T13:20:45.034Z,68.20
2018-04-26T13:23:49.586Z,60.80
2018-04-26T13:26:54.185Z,61.27
2018-04-26T13:29:58.054Z,60.63
2018-04-26T13:33:01.839Z,63.53
2018-04-26T13:36:05.650Z,65.90
2018-04-26T13:39:09.465Z,56.57
2018-04-26T13:42:13.259Z,59.37
2018-04-26T13:45:17.075Z,64.20
2018-04-26T13:48:20.891Z,57.37
2018-04-26T13:51:25.417Z,59.77
2018-04-26T13:54:29.234Z,62.40
2018-04-26T13:57:33.049Z,56.50
2018-04-26T14:00:36.897Z,51.27
2018-04-26T14:03:40.695Z,52.17
2018-04-26T14:06:44.490Z,49.50
2018-04-26T14:09:48.303Z,43.20
2018-04-26T14:12:52.129Z,47.47
2018-04-26T14:15:55.918Z,41.27
2018-04-26T14:19:00.466Z,40.10
2018-04-26T14:25:09.562Z,35.33
2018-04-26T14:28:13.374Z,34.60
2018-04-26T14:31:18.521Z,32.90
2018-04-26T14:34:23.077Z,29.03
2018-04-26T14:37:27.687Z,30.13
2018-04-26T14:40:31.452Z,26.73
2018-04-26T14:43:35.275Z,24.70
2018-04-26T14:46:39.069Z,32.73
2018-04-26T14:49:42.953Z,36.70
2018-04-26T14:52:47.433Z,107.90
2018-04-26T14:55:51.261Z,159.43
2018-04-26T14:58:55.903Z,150.40
2018-04-26T15:01:59.737Z,123.27
2018-04-26T15:05:06.843Z,151.57
2018-04-26T15:08:11.374Z,173.53
2018-04-26T15:11:15.205Z,139.40
2018-04-26T15:14:19.749Z,161.60
2018-04-26T15:17:24.316Z,154.53
2018-04-26T15:20:28.151Z,171.13
2018-04-26T15:23:31.962Z,175.47
2018-04-26T15:26:35.792Z,144.57
2018-04-26T15:29:39.675Z,141.70
2018-04-26T15:32:43.496Z,130.00
2018-04-26T15:35:47.313Z,127.50
2018-04-26T15:38:51.209Z,119.43
2018-04-26T15:41:54.957Z,125.17
2018-04-26T15:44:58.754Z,111.03
2018-04-26T15:48:02.579Z,112.60
2018-04-26T15:51:06.402Z,96.30
2018-04-26T15:54:28.061Z,93.20
2018-04-26T16:09:19.492Z,70.12
2018-04-26T16:12:56.532Z,64.73
2018-04-26T16:20:13.767Z,61.13
2018-04-26T16:23:41.551Z,56.43
2018-04-26T16:27:09.597Z,54.33
2018-04-26T16:34:17.115Z,49.30
2018-04-26T16:37:45.107Z,49.30
2018-04-26T16:40:49.647Z,41.57
2018-04-26T16:43:54.193Z,42.73
2018-04-26T16:46:58.767Z,39.53
2018-04-26T16:50:02.584Z,40.90
2018-04-26T16:53:06.411Z,39.57
2018-04-26T16:56:10.218Z,35.93
2018-04-26T16:59:14.151Z,32.77
2018-04-26T17:02:17.937Z,35.43
2018-04-26T17:05:22.492Z,31.90
2018-04-26T17:08:27.066Z,25.60
2018-04-26T17:11:30.873Z,27.00
2018-04-26T17:14:34.712Z,24.33
2018-04-26T17:17:38.511Z,21.97
2018-04-26T17:20:43.076Z,24.77
2018-04-26T17:23:47.173Z,21.87
2018-04-26T17:26:51.021Z,18.67
2018-04-26T17:29:54.860Z,20.60
2018-04-26T17:32:58.652Z,20.23
2018-04-26T17:36:03.202Z,17.73
2018-04-26T17:39:07.758Z,24.00
2018-04-26T17:42:11.545Z,76.30
2018-04-26T17:45:15.366Z,73.63
2018-04-26T17:48:19.163Z,79.27
2018-04-26T17:51:22.989Z,70.87
2018-04-26T17:54:26.841Z,84.90
2018-04-26T17:57:30.649Z,84.30
2018-04-26T18:00:34.457Z,78.03
2018-04-26T18:03:38.262Z,73.17
2018-04-26T18:06:42.093Z,69.03
2018-04-26T18:09:45.890Z,63.93
2018-04-26T18:12:49.704Z,62.63
2018-04-26T18:15:54.256Z,58.13
2018-04-26T18:18:58.054Z,52.63
2018-04-26T18:22:02.626Z,51.17
2018-04-26T18:25:06.446Z,47.43
2018-04-26T18:28:11.019Z,48.33
2018-04-26T18:31:14.851Z,45.13
2018-04-26T18:34:18.650Z,41.83
2018-04-26T18:37:22.467Z,41.70
2018-04-26T18:40:26.289Z,40.10
2018-04-26T18:43:30.134Z,36.23
2018-04-26T18:46:33.957Z,36.00
2018-04-26T18:49:37.767Z,32.20
2018-04-26T18:52:41.586Z,32.87
2018-04-26T18:55:45.372Z,31.37
2018-04-26T18:58:49.194Z,30.07
2018-04-26T19:01:53.010Z,29.87
2018-04-26T19:04:56.806Z,26.40
2018-04-26T19:08:00.627Z,25.17
2018-04-26T19:11:04.434Z,28.83
2018-04-26T19:14:08.363Z,24.83
2018-04-26T19:17:12.194Z,23.37
2018-04-26T19:20:15.978Z,20.63
2018-04-26T19:23:19.794Z,19.43
2018-04-26T19:26:23.591Z,19.97
2018-04-26T19:29:27.406Z,18.67
2018-04-26T19:32:31.226Z,18.63
2018-04-26T19:35:35.046Z,17.00
2018-04-26T19:38:38.868Z,17.43
2018-04-26T19:41:42.783Z,16.97
2018-04-26T19:44:46.603Z,15.17
2018-04-26T19:47:50.413Z,16.30
2018-04-26T19:50:54.952Z,16.30
2018-04-26T19:53:59.519Z,13.73
2018-04-26T19:57:03.320Z,13.40
2018-04-26T20:00:07.902Z,14.87
2018-04-26T20:03:11.706Z,13.80
2018-04-26T20:06:15.527Z,12.13
2018-04-26T20:09:19.377Z,14.43
2018-04-26T20:12:23.217Z,12.87
2018-04-26T20:15:28.497Z,14.40
2018-04-26T20:18:32.443Z,12.17
2018-04-26T20:21:36.178Z,13.43
2018-04-26T20:24:39.994Z,14.60
2018-04-26T20:27:44.579Z,13.87
2018-04-26T20:30:48.399Z,12.97
2018-04-26T20:33:52.191Z,12.30
2018-04-26T20:36:56.005Z,10.43
2018-04-26T20:40:00.556Z,10.53
2018-04-26T20:43:04.355Z,10.77
2018-04-26T20:46:08.903Z,9.50
2018-04-26T20:49:14.953Z,11.57
2018-04-26T20:52:18.872Z,11.30
2018-04-26T20:55:22.685Z,10.87
2018-04-26T20:58:26.470Z,10.13
2018-04-26T21:01:31.020Z,10.60
2018-04-26T21:04:34.819Z,9.67
2018-04-26T21:07:39.369Z,8.67
2018-04-26T21:10:43.923Z,7.97
2018-04-26T21:13:47.739Z,7.43
2018-04-26T21:16:52.290Z,11.47
2018-04-26T21:19:56.083Z,10.93
2018-04-26T21:22:59.900Z,11.40
2018-04-26T21:26:03.715Z,22.07
2018-04-26T21:29:07.513Z,17.07
2018-04-26T21:32:11.321Z,13.43
2018-04-26T21:35:15.116Z,12.90
2018-04-26T21:38:19.665Z,12.87
2018-04-26T21:41:24.222Z,11.60
2018-04-26T21:44:28.011Z,10.23
2018-04-26T21:47:31.849Z,11.37
2018-04-26T21:50:41.804Z,9.07
2018-04-26T21:53:50.979Z,14.63
2018-04-26T21:57:00.265Z,10.83
2018-04-26T22:00:09.587Z,10.03
2018-04-26T22:03:13.393Z,10.70
2018-04-26T22:06:17.958Z,12.03
2018-04-26T22:09:21.750Z,11.60
2018-04-26T22:12:26.306Z,10.27
2018-04-26T22:15:30.860Z,12.53
2018-04-26T22:18:34.690Z,13.77
2018-04-26T22:21:39.215Z,11.43
2018-04-26T22:24:43.766Z,6.90
2018-04-26T22:27:48.318Z,11.57
2018-04-26T22:30:52.109Z,13.07
2018-04-26T22:33:55.955Z,19.17
2018-04-26T22:37:00.512Z,12.03
2018-04-26T22:40:04.342Z,9.17
2018-04-26T22:43:08.164Z,12.13
2018-04-26T22:46:12.067Z,10.27
2018-04-26T22:49:16.617Z,10.50
2018-04-26T22:52:21.158Z,10.93
2018-04-26T22:55:25.711Z,20.23
2018-04-26T22:58:29.520Z,10.93
2018-04-26T23:01:34.123Z,12.97
2018-04-26T23:04:37.938Z,9.63
2018-04-26T23:07:41.718Z,14.33
2018-04-26T23:10:46.267Z,11.47
2018-04-26T23:13:50.068Z,9.43
2018-04-26T23:16:54.618Z,10.13
2018-04-26T23:19:59.162Z,8.00
2018-04-26T23:23:03.714Z,9.03
2018-04-26T23:26:07.500Z,7.47
2018-04-26T23:29:11.316Z,7.97
2018-04-26T23:32:15.097Z,5.67
2018-04-26T23:35:18.903Z,9.90
2018-04-26T23:38:22.704Z,7.73
2018-04-26T23:41:26.531Z,8.23
2018-04-26T23:44:31.082Z,8.83
2018-04-26T23:47:35.614Z,7.37
2018-04-26T23:50:40.164Z,4.83
2018-04-26T23:53:44.711Z,6.67
2018-04-26T23:56:49.243Z,10.10
2018-04-26T23:59:53.783Z,8.60
